sensor_id;sensor_type;location;lat;lon;timestamp;P1;durP1;ratioP1;P2;durP2;ratioP2
4939;SDS011;2485;49.326;7.214;2022-08-30T00:00:27;3.73;;;2.70;;
4939;SDS011;2485;49.326;7.214;2022-08-30T00:03:11;8.03;;;2.97;;
4939;SDS011;2485;49.326;7.214;2022-08-30T00:05:40;6.10;;;2.83;;
4939;SDS011;2485;49.326;7.214;2022-08-30T00:08:07;7.33;;;3.50;;
4939;SDS011;2485;49.326;7.214;2022-08-30T00:10:35;10.00;;;3.17;;
4939;SDS011;2485;49.326;7.214;2022-08-30T00:13:02;12.23;;;2.93;;
4939;SDS011;2485;49.326;7.214;2022-08-30T00:15:29;5.43;;;2.60;;
4939;SDS011;2485;49.326;7.214;2022-08-30T00:17:57;4.80;;;3.13;;
4939;SDS011;2485;49.326;7.214;2022-08-30T00:20:26;6.70;;;2.97;;
4939;SDS011;2485;49.326;7.214;2022-08-30T00:22:54;5.90;;;3.50;;
4939;SDS011;2485;49.326;7.214;2022-08-30T00:25:21;8.17;;;2.80;;
4939;SDS011;2485;49.326;7.214;2022-08-30T00:27:58;5.60;;;2.70;;
4939;SDS011;2485;49.326;7.214;2022-08-30T00:30:51;3.17;;;2.30;;
4939;SDS011;2485;49.326;7.214;2022-08-30T00:33:42;4.53;;;2.60;;
4939;SDS011;2485;49.326;7.214;2022-08-30T00:36:15;5.13;;;2.90;;
4939;SDS011;2485;49.326;7.214;2022-08-30T00:38:43;4.70;;;2.80;;
4939;SDS011;2485;49.326;7.214;2022-08-30T00:41:10;3.13;;;2.40;;
4939;SDS011;2485;49.326;7.214;2022-08-30T00:43:44;3.70;;;2.60;;
4939;SDS011;2485;49.326;7.214;2022-08-30T00:46:11;9.20;;;2.93;;
4939;SDS011;2485;49.326;7.214;2022-08-30T00:48:42;6.10;;;3.30;;
4939;SDS011;2485;49.326;7.214;2022-08-30T00:51:11;3.10;;;2.40;;
4939;SDS011;2485;49.326;7.214;2022-08-30T00:53:39;6.20;;;3.30;;
4939;SDS011;2485;49.326;7.214;2022-08-30T00:56:08;6.00;;;2.83;;
4939;SDS011;2485;49.326;7.214;2022-08-30T00:58:36;6.57;;;2.70;;
4939;SDS011;2485;49.326;7.214;2022-08-30T01:04:23;3.70;;;2.53;;
4939;SDS011;2485;49.326;7.214;2022-08-30T01:06:56;4.43;;;2.83;;
4939;SDS011;2485;49.326;7.214;2022-08-30T01:09:24;4.63;;;2.97;;
4939;SDS011;2485;49.326;7.214;2022-08-30T01:11:52;4.73;;;3.00;;
4939;SDS011;2485;49.326;7.214;2022-08-30T01:14:19;7.57;;;3.23;;
4939;SDS011;2485;49.326;7.214;2022-08-30T01:16:46;4.70;;;2.73;;
4939;SDS011;2485;49.326;7.214;2022-08-30T01:19:17;6.13;;;3.13;;
4939;SDS011;2485;49.326;7.214;2022-08-30T01:21:47;5.53;;;3.00;;
4939;SDS011;2485;49.326;7.214;2022-08-30T01:24:17;3.97;;;2.83;;
4939;SDS011;2485;49.326;7.214;2022-08-30T01:26:44;4.73;;;2.90;;
4939;SDS011;2485;49.326;7.214;2022-08-30T01:29:12;5.33;;;2.97;;
4939;SDS011;2485;49.326;7.214;2022-08-30T01:31:40;3.40;;;2.70;;
4939;SDS011;2485;49.326;7.214;2022-08-30T01:34:07;4.30;;;2.80;;
4939;SDS011;2485;49.326;7.214;2022-08-30T01:36:34;4.33;;;3.00;;
4939;SDS011;2485;49.326;7.214;2022-08-30T01:39:02;5.67;;;3.20;;
4939;SDS011;2485;49.326;7.214;2022-08-30T01:41:31;8.37;;;3.33;;
4939;SDS011;2485;49.326;7.214;2022-08-30T01:43:59;4.43;;;2.90;;
4939;SDS011;2485;49.326;7.214;2022-08-30T01:46:27;6.93;;;2.80;;
4939;SDS011;2485;49.326;7.214;2022-08-30T01:49:00;7.57;;;3.00;;
4939;SDS011;2485;49.326;7.214;2022-08-30T01:51:42;7.10;;;2.50;;
4939;SDS011;2485;49.326;7.214;2022-08-30T01:54:09;4.93;;;2.77;;
4939;SDS011;2485;49.326;7.214;2022-08-30T01:56:37;8.47;;;3.13;;
4939;SDS011;2485;49.326;7.214;2022-08-30T01:59:04;6.13;;;2.97;;
4939;SDS011;2485;49.326;7.214;2022-08-30T02:01:31;8.70;;;3.33;;
4939;SDS011;2485;49.326;7.214;2022-08-30T02:03:59;6.40;;;3.17;;
4939;SDS011;2485;49.326;7.214;2022-08-30T02:06:26;4.00;;;3.00;;
4939;SDS011;2485;49.326;7.214;2022-08-30T02:08:53;7.20;;;3.27;;
4939;SDS011;2485;49.326;7.214;2022-08-30T02:11:20;13.70;;;3.50;;
4939;SDS011;2485;49.326;7.214;2022-08-30T02:13:48;5.90;;;2.90;;
4939;SDS011;2485;49.326;7.214;2022-08-30T02:16:17;6.53;;;2.90;;
4939;SDS011;2485;49.326;7.214;2022-08-30T02:18:44;7.80;;;3.33;;
4939;SDS011;2485;49.326;7.214;2022-08-30T02:21:12;4.80;;;2.70;;
4939;SDS011;2485;49.326;7.214;2022-08-30T02:23:40;3.63;;;2.87;;
4939;SDS011;2485;49.326;7.214;2022-08-30T02:26:07;4.30;;;3.00;;
4939;SDS011;2485;49.326;7.214;2022-08-30T02:28:34;4.87;;;2.90;;
4939;SDS011;2485;49.326;7.214;2022-08-30T02:31:02;6.50;;;2.57;;
4939;SDS011;2485;49.326;7.214;2022-08-30T02:33:29;5.50;;;2.70;;
4939;SDS011;2485;49.326;7.214;2022-08-30T02:35:56;4.30;;;3.20;;
4939;SDS011;2485;49.326;7.214;2022-08-30T02:38:23;5.83;;;2.93;;
4939;SDS011;2485;49.326;7.214;2022-08-30T02:40:50;5.60;;;2.80;;
4939;SDS011;2485;49.326;7.214;2022-08-30T02:43:18;3.10;;;2.70;;
4939;SDS011;2485;49.326;7.214;2022-08-30T02:45:44;4.73;;;3.00;;
4939;SDS011;2485;49.326;7.214;2022-08-30T02:48:12;4.87;;;2.90;;
4939;SDS011;2485;49.326;7.214;2022-08-30T02:50:40;11.30;;;3.90;;
4939;SDS011;2485;49.326;7.214;2022-08-30T02:53:06;3.90;;;3.00;;
4939;SDS011;2485;49.326;7.214;2022-08-30T02:55:33;4.10;;;3.00;;
4939;SDS011;2485;49.326;7.214;2022-08-30T02:57:59;4.33;;;3.07;;
4939;SDS011;2485;49.326;7.214;2022-08-30T03:00:26;4.23;;;2.90;;
4939;SDS011;2485;49.326;7.214;2022-08-30T03:02:53;5.33;;;2.97;;
4939;SDS011;2485;49.326;7.214;2022-08-30T03:05:21;6.90;;;4.10;;
4939;SDS011;2485;49.326;7.214;2022-08-30T03:07:47;7.43;;;3.40;;
4939;SDS011;2485;49.326;7.214;2022-08-30T03:10:14;5.43;;;3.43;;
4939;SDS011;2485;49.326;7.214;2022-08-30T03:12:41;4.47;;;3.00;;
4939;SDS011;2485;49.326;7.214;2022-08-30T03:15:08;4.93;;;3.10;;
4939;SDS011;2485;49.326;7.214;2022-08-30T03:17:36;12.03;;;2.93;;
4939;SDS011;2485;49.326;7.214;2022-08-30T03:20:11;5.10;;;3.30;;
4939;SDS011;2485;49.326;7.214;2022-08-30T03:22:42;8.20;;;3.60;;
4939;SDS011;2485;49.326;7.214;2022-08-30T03:25:08;6.10;;;3.33;;
4939;SDS011;2485;49.326;7.214;2022-08-30T03:27:35;4.80;;;3.03;;
4939;SDS011;2485;49.326;7.214;2022-08-30T03:30:08;6.73;;;3.10;;
4939;SDS011;2485;49.326;7.214;2022-08-30T03:32:34;4.50;;;3.17;;
4939;SDS011;2485;49.326;7.214;2022-08-30T03:35:01;7.27;;;2.97;;
4939;SDS011;2485;49.326;7.214;2022-08-30T03:37:28;4.30;;;3.23;;
4939;SDS011;2485;49.326;7.214;2022-08-30T03:42:51;3.50;;;2.70;;
4939;SDS011;2485;49.326;7.214;2022-08-30T03:48:03;5.87;;;3.23;;
4939;SDS011;2485;49.326;7.214;2022-08-30T03:50:30;4.73;;;2.93;;
4939;SDS011;2485;49.326;7.214;2022-08-30T03:52:56;4.73;;;3.47;;
4939;SDS011;2485;49.326;7.214;2022-08-30T03:55:26;10.10;;;3.27;;
4939;SDS011;2485;49.326;7.214;2022-08-30T03:57:55;7.20;;;3.73;;
4939;SDS011;2485;49.326;7.214;2022-08-30T04:00:22;6.80;;;3.40;;
4939;SDS011;2485;49.326;7.214;2022-08-30T04:02:49;4.30;;;3.27;;
4939;SDS011;2485;49.326;7.214;2022-08-30T04:05:15;6.63;;;3.20;;
4939;SDS011;2485;49.326;7.214;2022-08-30T04:07:42;7.80;;;3.30;;
4939;SDS011;2485;49.326;7.214;2022-08-30T04:10:09;14.23;;;4.00;;
4939;SDS011;2485;49.326;7.214;2022-08-30T04:12:35;5.60;;;3.40;;
4939;SDS011;2485;49.326;7.214;2022-08-30T04:15:05;4.70;;;3.10;;
4939;SDS011;2485;49.326;7.214;2022-08-30T04:17:34;10.33;;;3.57;;
4939;SDS011;2485;49.326;7.214;2022-08-30T04:20:01;6.67;;;3.37;;
4939;SDS011;2485;49.326;7.214;2022-08-30T04:22:27;6.83;;;3.97;;
4939;SDS011;2485;49.326;7.214;2022-08-30T04:24:54;6.03;;;2.97;;
4939;SDS011;2485;49.326;7.214;2022-08-30T04:27:21;6.50;;;3.80;;
4939;SDS011;2485;49.326;7.214;2022-08-30T04:29:49;5.53;;;3.70;;
4939;SDS011;2485;49.326;7.214;2022-08-30T04:32:17;6.77;;;3.03;;
4939;SDS011;2485;49.326;7.214;2022-08-30T04:34:43;6.63;;;3.30;;
4939;SDS011;2485;49.326;7.214;2022-08-30T04:37:10;7.37;;;3.43;;
4939;SDS011;2485;49.326;7.214;2022-08-30T04:39:37;9.23;;;3.83;;
4939;SDS011;2485;49.326;7.214;2022-08-30T04:42:04;6.60;;;3.43;;
4939;SDS011;2485;49.326;7.214;2022-08-30T04:44:31;12.50;;;4.07;;
4939;SDS011;2485;49.326;7.214;2022-08-30T04:46:58;9.40;;;4.07;;
4939;SDS011;2485;49.326;7.214;2022-08-30T04:49:26;11.53;;;3.60;;
4939;SDS011;2485;49.326;7.214;2022-08-30T04:51:53;5.50;;;3.77;;
4939;SDS011;2485;49.326;7.214;2022-08-30T04:54:20;8.80;;;3.87;;
4939;SDS011;2485;49.326;7.214;2022-08-30T04:56:48;7.80;;;3.93;;
4939;SDS011;2485;49.326;7.214;2022-08-30T04:59:18;6.73;;;3.73;;
4939;SDS011;2485;49.326;7.214;2022-08-30T05:01:46;9.50;;;3.63;;
4939;SDS011;2485;49.326;7.214;2022-08-30T05:04:13;6.80;;;3.70;;
4939;SDS011;2485;49.326;7.214;2022-08-30T05:06:41;5.73;;;3.20;;
4939;SDS011;2485;49.326;7.214;2022-08-30T05:09:08;5.03;;;3.70;;
4939;SDS011;2485;49.326;7.214;2022-08-30T05:11:35;11.77;;;3.83;;
4939;SDS011;2485;49.326;7.214;2022-08-30T05:14:03;8.53;;;3.60;;
4939;SDS011;2485;49.326;7.214;2022-08-30T05:16:29;11.40;;;4.53;;
4939;SDS011;2485;49.326;7.214;2022-08-30T05:18:56;11.00;;;3.70;;
4939;SDS011;2485;49.326;7.214;2022-08-30T05:21:23;6.43;;;3.30;;
4939;SDS011;2485;49.326;7.214;2022-08-30T05:23:53;8.57;;;3.50;;
4939;SDS011;2485;49.326;7.214;2022-08-30T05:26:21;7.00;;;3.43;;
4939;SDS011;2485;49.326;7.214;2022-08-30T05:28:48;7.13;;;3.50;;
4939;SDS011;2485;49.326;7.214;2022-08-30T05:31:16;9.07;;;3.27;;
4939;SDS011;2485;49.326;7.214;2022-08-30T05:33:43;6.80;;;3.67;;
4939;SDS011;2485;49.326;7.214;2022-08-30T05:36:10;8.63;;;3.70;;
4939;SDS011;2485;49.326;7.214;2022-08-30T05:38:38;5.33;;;3.27;;
4939;SDS011;2485;49.326;7.214;2022-08-30T05:41:08;6.40;;;3.83;;
4939;SDS011;2485;49.326;7.214;2022-08-30T05:43:35;11.03;;;4.33;;
4939;SDS011;2485;49.326;7.214;2022-08-30T05:46:22;8.10;;;3.90;;
4939;SDS011;2485;49.326;7.214;2022-08-30T05:48:48;14.33;;;4.03;;
4939;SDS011;2485;49.326;7.214;2022-08-30T05:51:32;7.73;;;3.40;;
4939;SDS011;2485;49.326;7.214;2022-08-30T05:54:08;10.60;;;3.70;;
4939;SDS011;2485;49.326;7.214;2022-08-30T05:56:37;6.30;;;3.60;;
4939;SDS011;2485;49.326;7.214;2022-08-30T05:59:05;7.40;;;3.03;;
4939;SDS011;2485;49.326;7.214;2022-08-30T06:01:33;8.87;;;3.13;;
4939;SDS011;2485;49.326;7.214;2022-08-30T06:04:09;6.07;;;3.50;;
4939;SDS011;2485;49.326;7.214;2022-08-30T06:06:52;5.13;;;3.10;;
4939;SDS011;2485;49.326;7.214;2022-08-30T06:09:19;7.80;;;3.33;;
4939;SDS011;2485;49.326;7.214;2022-08-30T06:11:55;8.97;;;3.33;;
4939;SDS011;2485;49.326;7.214;2022-08-30T06:14:29;5.73;;;2.90;;
4939;SDS011;2485;49.326;7.214;2022-08-30T06:16:55;7.47;;;2.70;;
4939;SDS011;2485;49.326;7.214;2022-08-30T06:19:22;5.00;;;3.27;;
4939;SDS011;2485;49.326;7.214;2022-08-30T06:21:49;7.10;;;2.80;;
4939;SDS011;2485;49.326;7.214;2022-08-30T06:24:25;6.97;;;3.30;;
4939;SDS011;2485;49.326;7.214;2022-08-30T06:26:57;5.20;;;2.50;;
4939;SDS011;2485;49.326;7.214;2022-08-30T06:29:34;4.57;;;2.90;;
4939;SDS011;2485;49.326;7.214;2022-08-30T06:32:00;5.83;;;2.73;;
4939;SDS011;2485;49.326;7.214;2022-08-30T06:34:27;3.70;;;2.73;;
4939;SDS011;2485;49.326;7.214;2022-08-30T06:36:54;9.10;;;2.93;;
4939;SDS011;2485;49.326;7.214;2022-08-30T06:39:21;5.37;;;3.00;;
4939;SDS011;2485;49.326;7.214;2022-08-30T06:41:48;2.70;;;2.10;;
4939;SDS011;2485;49.326;7.214;2022-08-30T06:44:17;5.77;;;2.53;;
4939;SDS011;2485;49.326;7.214;2022-08-30T06:46:43;6.33;;;3.53;;
4939;SDS011;2485;49.326;7.214;2022-08-30T06:49:10;4.17;;;2.93;;
4939;SDS011;2485;49.326;7.214;2022-08-30T06:51:38;4.73;;;2.43;;
4939;SDS011;2485;49.326;7.214;2022-08-30T06:54:05;4.50;;;2.47;;
4939;SDS011;2485;49.326;7.214;2022-08-30T06:56:32;3.77;;;2.67;;
4939;SDS011;2485;49.326;7.214;2022-08-30T06:58:58;7.63;;;2.73;;
4939;SDS011;2485;49.326;7.214;2022-08-30T07:01:28;4.97;;;2.40;;
4939;SDS011;2485;49.326;7.214;2022-08-30T07:03:55;3.47;;;2.30;;
4939;SDS011;2485;49.326;7.214;2022-08-30T07:06:22;3.57;;;2.33;;
4939;SDS011;2485;49.326;7.214;2022-08-30T07:08:49;4.60;;;2.60;;
4939;SDS011;2485;49.326;7.214;2022-08-30T07:11:25;3.37;;;2.47;;
4939;SDS011;2485;49.326;7.214;2022-08-30T07:13:53;3.93;;;2.30;;
4939;SDS011;2485;49.326;7.214;2022-08-30T07:16:22;3.77;;;2.37;;
4939;SDS011;2485;49.326;7.214;2022-08-30T07:18:57;4.87;;;2.27;;
4939;SDS011;2485;49.326;7.214;2022-08-30T07:21:36;7.20;;;2.50;;
4939;SDS011;2485;49.326;7.214;2022-08-30T07:24:10;4.77;;;2.83;;
4939;SDS011;2485;49.326;7.214;2022-08-30T07:26:37;6.90;;;2.73;;
4939;SDS011;2485;49.326;7.214;2022-08-30T07:29:05;8.70;;;2.50;;
4939;SDS011;2485;49.326;7.214;2022-08-30T07:31:32;3.80;;;2.53;;
4939;SDS011;2485;49.326;7.214;2022-08-30T07:34:01;8.00;;;2.50;;
4939;SDS011;2485;49.326;7.214;2022-08-30T07:36:28;7.87;;;3.50;;
4939;SDS011;2485;49.326;7.214;2022-08-30T07:38:55;6.00;;;2.20;;
4939;SDS011;2485;49.326;7.214;2022-08-30T07:41:27;4.63;;;2.53;;
4939;SDS011;2485;49.326;7.214;2022-08-30T07:43:54;6.70;;;2.50;;
4939;SDS011;2485;49.326;7.214;2022-08-30T07:46:21;5.63;;;3.13;;
4939;SDS011;2485;49.326;7.214;2022-08-30T07:48:51;6.07;;;2.47;;
4939;SDS011;2485;49.326;7.214;2022-08-30T07:51:20;8.07;;;2.57;;
4939;SDS011;2485;49.326;7.214;2022-08-30T07:53:48;4.47;;;2.33;;
4939;SDS011;2485;49.326;7.214;2022-08-30T07:56:15;5.10;;;2.27;;
4939;SDS011;2485;49.326;7.214;2022-08-30T07:58:42;2.87;;;2.30;;
4939;SDS011;2485;49.326;7.214;2022-08-30T08:01:10;5.50;;;2.50;;
4939;SDS011;2485;49.326;7.214;2022-08-30T08:03:37;2.80;;;1.90;;
4939;SDS011;2485;49.326;7.214;2022-08-30T08:06:08;4.50;;;2.30;;
4939;SDS011;2485;49.326;7.214;2022-08-30T08:08:36;5.53;;;2.80;;
4939;SDS011;2485;49.326;7.214;2022-08-30T08:11:06;3.27;;;2.23;;
4939;SDS011;2485;49.326;7.214;2022-08-30T08:13:33;3.57;;;2.40;;
4939;SDS011;2485;49.326;7.214;2022-08-30T08:16:00;2.93;;;2.20;;
4939;SDS011;2485;49.326;7.214;2022-08-30T08:21:12;5.10;;;2.40;;
4939;SDS011;2485;49.326;7.214;2022-08-30T08:23:41;7.33;;;2.73;;
4939;SDS011;2485;49.326;7.214;2022-08-30T08:26:11;4.10;;;2.50;;
4939;SDS011;2485;49.326;7.214;2022-08-30T08:28:38;5.93;;;2.57;;
4939;SDS011;2485;49.326;7.214;2022-08-30T08:31:12;6.90;;;2.50;;
4939;SDS011;2485;49.326;7.214;2022-08-30T08:33:39;5.17;;;2.87;;
4939;SDS011;2485;49.326;7.214;2022-08-30T08:36:05;4.50;;;2.57;;
4939;SDS011;2485;49.326;7.214;2022-08-30T08:38:32;10.83;;;2.87;;
4939;SDS011;2485;49.326;7.214;2022-08-30T08:41:01;11.03;;;2.80;;
4939;SDS011;2485;49.326;7.214;2022-08-30T08:43:28;4.70;;;2.63;;
4939;SDS011;2485;49.326;7.214;2022-08-30T08:45:59;7.57;;;3.10;;
4939;SDS011;2485;49.326;7.214;2022-08-30T08:48:30;8.27;;;3.10;;
4939;SDS011;2485;49.326;7.214;2022-08-30T08:50:58;3.60;;;2.50;;
4939;SDS011;2485;49.326;7.214;2022-08-30T08:53:43;3.40;;;2.53;;
4939;SDS011;2485;49.326;7.214;2022-08-30T08:56:12;7.50;;;3.00;;
4939;SDS011;2485;49.326;7.214;2022-08-30T08:58:43;3.57;;;2.67;;
4939;SDS011;2485;49.326;7.214;2022-08-30T09:01:10;5.33;;;2.60;;
4939;SDS011;2485;49.326;7.214;2022-08-30T09:03:37;9.90;;;2.70;;
4939;SDS011;2485;49.326;7.214;2022-08-30T09:06:10;3.90;;;3.00;;
4939;SDS011;2485;49.326;7.214;2022-08-30T09:08:40;6.17;;;2.60;;
4939;SDS011;2485;49.326;7.214;2022-08-30T09:11:07;4.97;;;2.80;;
4939;SDS011;2485;49.326;7.214;2022-08-30T09:13:44;4.50;;;2.60;;
4939;SDS011;2485;49.326;7.214;2022-08-30T09:16:10;5.77;;;2.70;;
4939;SDS011;2485;49.326;7.214;2022-08-30T09:18:57;3.97;;;3.13;;
4939;SDS011;2485;49.326;7.214;2022-08-30T09:21:27;8.83;;;3.17;;
4939;SDS011;2485;49.326;7.214;2022-08-30T09:23:56;7.80;;;2.90;;
4939;SDS011;2485;49.326;7.214;2022-08-30T09:26:28;5.00;;;2.70;;
4939;SDS011;2485;49.326;7.214;2022-08-30T09:29:02;3.10;;;2.60;;
4939;SDS011;2485;49.326;7.214;2022-08-30T09:31:29;9.00;;;2.73;;
4939;SDS011;2485;49.326;7.214;2022-08-30T09:33:58;5.37;;;2.33;;
4939;SDS011;2485;49.326;7.214;2022-08-30T09:36:28;5.97;;;3.10;;
4939;SDS011;2485;49.326;7.214;2022-08-30T09:38:57;4.17;;;2.43;;
4939;SDS011;2485;49.326;7.214;2022-08-30T09:41:33;7.47;;;3.30;;
4939;SDS011;2485;49.326;7.214;2022-08-30T09:44:17;4.03;;;2.57;;
4939;SDS011;2485;49.326;7.214;2022-08-30T09:46:54;5.23;;;3.00;;
4939;SDS011;2485;49.326;7.214;2022-08-30T09:49:36;5.17;;;3.07;;
4939;SDS011;2485;49.326;7.214;2022-08-30T09:52:10;6.23;;;3.37;;
4939;SDS011;2485;49.326;7.214;2022-08-30T09:54:40;4.67;;;2.90;;
4939;SDS011;2485;49.326;7.214;2022-08-30T09:57:12;6.53;;;3.27;;
4939;SDS011;2485;49.326;7.214;2022-08-30T09:59:46;4.23;;;2.50;;
4939;SDS011;2485;49.326;7.214;2022-08-30T10:02:27;4.07;;;2.70;;
4939;SDS011;2485;49.326;7.214;2022-08-30T10:04:57;6.90;;;2.97;;
4939;SDS011;2485;49.326;7.214;2022-08-30T10:07:29;4.50;;;3.27;;
4939;SDS011;2485;49.326;7.214;2022-08-30T10:09:59;3.87;;;2.67;;
4939;SDS011;2485;49.326;7.214;2022-08-30T10:12:31;5.40;;;3.40;;
4939;SDS011;2485;49.326;7.214;2022-08-30T10:15:06;6.03;;;3.63;;
4939;SDS011;2485;49.326;7.214;2022-08-30T10:17:44;6.20;;;3.00;;
4939;SDS011;2485;49.326;7.214;2022-08-30T10:20:15;5.10;;;2.90;;
4939;SDS011;2485;49.326;7.214;2022-08-30T10:22:54;6.27;;;3.37;;
4939;SDS011;2485;49.326;7.214;2022-08-30T10:25:22;7.00;;;3.30;;
4939;SDS011;2485;49.326;7.214;2022-08-30T10:27:51;9.43;;;3.97;;
4939;SDS011;2485;49.326;7.214;2022-08-30T10:30:23;4.17;;;2.83;;
4939;SDS011;2485;49.326;7.214;2022-08-30T10:32:50;7.83;;;2.87;;
4939;SDS011;2485;49.326;7.214;2022-08-30T10:35:20;6.13;;;3.47;;
4939;SDS011;2485;49.326;7.214;2022-08-30T10:37:50;4.83;;;3.40;;
4939;SDS011;2485;49.326;7.214;2022-08-30T10:40:35;6.63;;;3.30;;
4939;SDS011;2485;49.326;7.214;2022-08-30T10:43:21;4.17;;;3.10;;
4939;SDS011;2485;49.326;7.214;2022-08-30T10:45:51;6.40;;;3.50;;
4939;SDS011;2485;49.326;7.214;2022-08-30T10:48:20;6.27;;;3.63;;
4939;SDS011;2485;49.326;7.214;2022-08-30T10:50:50;8.77;;;3.67;;
4939;SDS011;2485;49.326;7.214;2022-08-30T10:53:20;9.13;;;4.37;;
4939;SDS011;2485;49.326;7.214;2022-08-30T10:55:50;8.00;;;3.80;;
4939;SDS011;2485;49.326;7.214;2022-08-30T10:58:17;8.60;;;3.47;;
4939;SDS011;2485;49.326;7.214;2022-08-30T11:00:55;7.00;;;4.10;;
4939;SDS011;2485;49.326;7.214;2022-08-30T11:03:43;6.73;;;3.57;;
4939;SDS011;2485;49.326;7.214;2022-08-30T11:06:19;3.63;;;3.10;;
4939;SDS011;2485;49.326;7.214;2022-08-30T11:11:36;6.87;;;3.50;;
4939;SDS011;2485;49.326;7.214;2022-08-30T11:14:05;8.60;;;4.47;;
4939;SDS011;2485;49.326;7.214;2022-08-30T11:16:34;3.87;;;3.40;;
4939;SDS011;2485;49.326;7.214;2022-08-30T11:19:02;4.70;;;3.53;;
4939;SDS011;2485;49.326;7.214;2022-08-30T11:21:39;7.40;;;3.90;;
4939;SDS011;2485;49.326;7.214;2022-08-30T11:24:06;5.17;;;3.37;;
4939;SDS011;2485;49.326;7.214;2022-08-30T11:26:51;5.27;;;3.87;;
4939;SDS011;2485;49.326;7.214;2022-08-30T11:29:29;7.43;;;4.07;;
4939;SDS011;2485;49.326;7.214;2022-08-30T11:31:57;7.17;;;4.30;;
4939;SDS011;2485;49.326;7.214;2022-08-30T11:37:07;11.93;;;3.83;;
4939;SDS011;2485;49.326;7.214;2022-08-30T11:39:53;4.63;;;3.63;;
4939;SDS011;2485;49.326;7.214;2022-08-30T11:47:52;7.33;;;4.70;;
4939;SDS011;2485;49.326;7.214;2022-08-30T11:50:20;11.50;;;4.23;;
4939;SDS011;2485;49.326;7.214;2022-08-30T11:53:02;4.50;;;3.30;;
4939;SDS011;2485;49.326;7.214;2022-08-30T11:55:44;5.77;;;3.70;;
4939;SDS011;2485;49.326;7.214;2022-08-30T11:58:16;5.97;;;3.97;;
4939;SDS011;2485;49.326;7.214;2022-08-30T12:00:45;4.00;;;3.60;;
4939;SDS011;2485;49.326;7.214;2022-08-30T12:03:26;7.90;;;4.13;;
4939;SDS011;2485;49.326;7.214;2022-08-30T12:05:58;4.33;;;3.87;;
4939;SDS011;2485;49.326;7.214;2022-08-30T12:13:57;8.90;;;4.07;;
4939;SDS011;2485;49.326;7.214;2022-08-30T12:16:33;10.43;;;4.20;;
4939;SDS011;2485;49.326;7.214;2022-08-30T12:19:09;5.73;;;4.53;;
4939;SDS011;2485;49.326;7.214;2022-08-30T12:21:35;4.73;;;3.30;;
4939;SDS011;2485;49.326;7.214;2022-08-30T12:24:03;6.67;;;4.67;;
4939;SDS011;2485;49.326;7.214;2022-08-30T12:26:33;7.13;;;4.30;;
4939;SDS011;2485;49.326;7.214;2022-08-30T12:29:12;7.60;;;4.00;;
4939;SDS011;2485;49.326;7.214;2022-08-30T12:31:41;5.73;;;4.17;;
4939;SDS011;2485;49.326;7.214;2022-08-30T12:34:08;4.87;;;3.80;;
4939;SDS011;2485;49.326;7.214;2022-08-30T12:36:51;6.07;;;4.10;;
4939;SDS011;2485;49.326;7.214;2022-08-30T12:39:19;10.90;;;4.33;;
4939;SDS011;2485;49.326;7.214;2022-08-30T12:41:46;4.73;;;3.60;;
4939;SDS011;2485;49.326;7.214;2022-08-30T12:44:16;4.53;;;3.83;;
4939;SDS011;2485;49.326;7.214;2022-08-30T12:46:51;6.77;;;3.70;;
4939;SDS011;2485;49.326;7.214;2022-08-30T12:49:24;4.27;;;3.43;;
4939;SDS011;2485;49.326;7.214;2022-08-30T12:51:52;5.07;;;4.17;;
4939;SDS011;2485;49.326;7.214;2022-08-30T12:54:20;6.30;;;4.10;;
4939;SDS011;2485;49.326;7.214;2022-08-30T12:56:58;4.97;;;3.30;;
4939;SDS011;2485;49.326;7.214;2022-08-30T12:59:44;4.70;;;3.97;;
4939;SDS011;2485;49.326;7.214;2022-08-30T13:02:13;6.10;;;4.40;;
4939;SDS011;2485;49.326;7.214;2022-08-30T13:04:40;6.90;;;4.23;;
4939;SDS011;2485;49.326;7.214;2022-08-30T13:07:07;4.47;;;4.03;;
4939;SDS011;2485;49.326;7.214;2022-08-30T13:09:42;8.53;;;4.10;;
4939;SDS011;2485;49.326;7.214;2022-08-30T13:12:19;4.20;;;3.70;;
4939;SDS011;2485;49.326;7.214;2022-08-30T13:14:55;5.10;;;3.83;;
4939;SDS011;2485;49.326;7.214;2022-08-30T13:17:45;6.77;;;4.50;;
4939;SDS011;2485;49.326;7.214;2022-08-30T13:20:20;6.13;;;4.50;;
4939;SDS011;2485;49.326;7.214;2022-08-30T13:22:59;7.13;;;4.60;;
4939;SDS011;2485;49.326;7.214;2022-08-30T13:25:26;7.13;;;3.70;;
4939;SDS011;2485;49.326;7.214;2022-08-30T13:27:54;4.83;;;4.00;;
4939;SDS011;2485;49.326;7.214;2022-08-30T13:30:22;4.80;;;4.10;;
4939;SDS011;2485;49.326;7.214;2022-08-30T13:32:49;7.60;;;5.30;;
4939;SDS011;2485;49.326;7.214;2022-08-30T13:35:16;7.70;;;4.20;;
4939;SDS011;2485;49.326;7.214;2022-08-30T13:37:43;4.57;;;4.17;;
4939;SDS011;2485;49.326;7.214;2022-08-30T13:40:13;7.17;;;4.23;;
4939;SDS011;2485;49.326;7.214;2022-08-30T13:42:41;6.30;;;5.07;;
4939;SDS011;2485;49.326;7.214;2022-08-30T13:45:08;4.90;;;4.37;;
4939;SDS011;2485;49.326;7.214;2022-08-30T13:47:37;4.40;;;4.00;;
4939;SDS011;2485;49.326;7.214;2022-08-30T13:50:04;5.27;;;4.53;;
4939;SDS011;2485;49.326;7.214;2022-08-30T13:52:48;7.00;;;4.93;;
4939;SDS011;2485;49.326;7.214;2022-08-30T13:55:15;6.23;;;4.37;;
4939;SDS011;2485;49.326;7.214;2022-08-30T13:57:42;7.17;;;4.47;;
4939;SDS011;2485;49.326;7.214;2022-08-30T14:00:12;8.87;;;4.50;;
4939;SDS011;2485;49.326;7.214;2022-08-30T14:02:55;6.40;;;4.77;;
4939;SDS011;2485;49.326;7.214;2022-08-30T14:05:27;10.97;;;4.40;;
4939;SDS011;2485;49.326;7.214;2022-08-30T14:08:08;5.87;;;3.67;;
4939;SDS011;2485;49.326;7.214;2022-08-30T14:10:36;9.60;;;5.00;;
4939;SDS011;2485;49.326;7.214;2022-08-30T14:13:06;5.13;;;3.80;;
4939;SDS011;2485;49.326;7.214;2022-08-30T14:15:34;5.37;;;4.17;;
4939;SDS011;2485;49.326;7.214;2022-08-30T14:18:03;6.40;;;5.03;;
4939;SDS011;2485;49.326;7.214;2022-08-30T14:20:30;6.47;;;4.47;;
4939;SDS011;2485;49.326;7.214;2022-08-30T14:22:57;4.83;;;3.93;;
4939;SDS011;2485;49.326;7.214;2022-08-30T14:25:24;6.13;;;4.00;;
4939;SDS011;2485;49.326;7.214;2022-08-30T14:28:00;6.47;;;4.17;;
4939;SDS011;2485;49.326;7.214;2022-08-30T14:30:31;7.40;;;4.90;;
4939;SDS011;2485;49.326;7.214;2022-08-30T14:32:58;5.20;;;4.20;;
4939;SDS011;2485;49.326;7.214;2022-08-30T14:35:26;7.37;;;4.50;;
4939;SDS011;2485;49.326;7.214;2022-08-30T14:37:53;7.80;;;3.77;;
4939;SDS011;2485;49.326;7.214;2022-08-30T14:40:20;4.70;;;3.60;;
4939;SDS011;2485;49.326;7.214;2022-08-30T14:42:56;5.13;;;4.30;;
4939;SDS011;2485;49.326;7.214;2022-08-30T14:45:30;4.40;;;4.00;;
4939;SDS011;2485;49.326;7.214;2022-08-30T14:47:57;8.80;;;4.33;;
4939;SDS011;2485;49.326;7.214;2022-08-30T14:50:28;3.80;;;3.40;;
4939;SDS011;2485;49.326;7.214;2022-08-30T14:52:55;4.57;;;4.13;;
4939;SDS011;2485;49.326;7.214;2022-08-30T14:55:21;4.50;;;3.80;;
4939;SDS011;2485;49.326;7.214;2022-08-30T14:57:48;5.07;;;4.20;;
4939;SDS011;2485;49.326;7.214;2022-08-30T15:00:15;7.30;;;4.73;;
4939;SDS011;2485;49.326;7.214;2022-08-30T15:02:42;5.60;;;4.43;;
4939;SDS011;2485;49.326;7.214;2022-08-30T15:05:08;3.87;;;3.47;;
4939;SDS011;2485;49.326;7.214;2022-08-30T15:07:37;6.07;;;3.97;;
4939;SDS011;2485;49.326;7.214;2022-08-30T15:10:10;7.50;;;4.10;;
4939;SDS011;2485;49.326;7.214;2022-08-30T15:12:38;4.73;;;4.30;;
4939;SDS011;2485;49.326;7.214;2022-08-30T15:15:06;8.33;;;3.30;;
4939;SDS011;2485;49.326;7.214;2022-08-30T15:17:33;5.00;;;4.30;;
4939;SDS011;2485;49.326;7.214;2022-08-30T15:20:00;5.73;;;4.20;;
4939;SDS011;2485;49.326;7.214;2022-08-30T15:22:26;5.67;;;4.07;;
4939;SDS011;2485;49.326;7.214;2022-08-30T15:24:54;10.00;;;4.53;;
4939;SDS011;2485;49.326;7.214;2022-08-30T15:27:28;7.80;;;4.40;;
4939;SDS011;2485;49.326;7.214;2022-08-30T15:29:56;4.87;;;4.37;;
4939;SDS011;2485;49.326;7.214;2022-08-30T15:32:26;5.60;;;4.60;;
4939;SDS011;2485;49.326;7.214;2022-08-30T15:34:57;8.97;;;4.87;;
4939;SDS011;2485;49.326;7.214;2022-08-30T15:37:24;7.93;;;4.43;;
4939;SDS011;2485;49.326;7.214;2022-08-30T15:39:51;6.30;;;4.40;;
4939;SDS011;2485;49.326;7.214;2022-08-30T15:42:19;5.50;;;4.47;;
4939;SDS011;2485;49.326;7.214;2022-08-30T15:44:49;4.83;;;4.33;;
4939;SDS011;2485;49.326;7.214;2022-08-30T15:47:16;8.47;;;4.67;;
4939;SDS011;2485;49.326;7.214;2022-08-30T15:49:44;7.27;;;4.13;;
4939;SDS011;2485;49.326;7.214;2022-08-30T15:55:04;4.30;;;3.57;;
4939;SDS011;2485;49.326;7.214;2022-08-30T15:57:35;7.03;;;4.50;;
4939;SDS011;2485;49.326;7.214;2022-08-30T16:00:06;5.90;;;4.40;;
4939;SDS011;2485;49.326;7.214;2022-08-30T16:02:34;6.70;;;4.40;;